4XCWC LLHZ-LLHZ

Flight info

Callsign 4XCWC
Flight time 0h 10m
Altitude 800
Route CVFR
Aircraft C172/L-VD/A

Departure

Time 2026-04-15 17:45
Airport Herzliya Airport (LLHZ)

Arrival

Time 2026-04-15 17:55
Airport Herzliya Airport (LLHZ)
Time Latitude Longitude Altitude Speed Heading
2026-04-15 17:38 32.17881 34.83779 115 ft 0 kts 110°
2026-04-15 17:43 32.17880 34.83785 115 ft 6 kts 86°
2026-04-15 17:44 32.17906 34.83830 117 ft 7 kts 16°
2026-04-15 17:44 32.17940 34.83768 119 ft 22 kts 295°
2026-04-15 17:44 32.18052 34.83384 101 ft 74 kts 289°
2026-04-15 17:44 32.18236 34.82760 268 ft 80 kts 304°
2026-04-15 17:45 32.18677 34.82609 413 ft 78 kts 20°
2026-04-15 17:45 32.19179 34.82833 609 ft 76 kts 39°
2026-04-15 17:45 32.19326 34.83418 743 ft 88 kts 103°
2026-04-15 17:45 32.19048 34.84149 754 ft 102 kts 109°
2026-04-15 17:46 32.18748 34.84922 707 ft 105 kts 111°
2026-04-15 17:46 32.18206 34.85416 685 ft 112 kts 186°
2026-04-15 17:46 32.17561 34.84957 617 ft 103 kts 257°
2026-04-15 17:46 32.17762 34.84296 386 ft 87 kts 297°
2026-04-15 17:47 32.17962 34.83663 113 ft 72 kts 297°
2026-04-15 17:47 32.18131 34.83106 169 ft 78 kts 298°
2026-04-15 17:47 32.18425 34.82654 369 ft 72 kts 359°
2026-04-15 17:47 32.18895 34.82668 541 ft 71 kts 14°
2026-04-15 17:48 32.19405 34.82815 660 ft 78 kts 43°
2026-04-15 17:48 32.19431 34.83439 754 ft 93 kts 110°
2026-04-15 17:48 32.19122 34.84051 663 ft 78 kts 118°
2026-04-15 17:48 32.18791 34.84595 604 ft 89 kts 119°
2026-04-15 17:49 32.18484 34.85290 651 ft 103 kts 107°
2026-04-15 17:49 32.17898 34.85328 717 ft 111 kts 211°
2026-04-15 17:49 32.17749 34.84657 494 ft 83 kts 284°
2026-04-15 17:49 32.17877 34.83993 210 ft 79 kts 290°
2026-04-15 17:50 32.18038 34.83447 102 ft 64 kts 283°
2026-04-15 17:50 32.18194 34.82896 219 ft 71 kts 304°
2026-04-15 17:50 32.18596 34.82743 346 ft 70 kts 18°
2026-04-15 17:50 32.19119 34.82894 494 ft 79 kts 17°
2026-04-15 17:51 32.19361 34.83422 569 ft 94 kts 99°
2026-04-15 17:51 32.19077 34.84187 564 ft 97 kts 112°
2026-04-15 17:51 32.18792 34.84810 450 ft 81 kts 112°
2026-04-15 17:51 32.18494 34.85371 550 ft 85 kts 148°
2026-04-15 17:52 32.17905 34.85179 568 ft 92 kts 202°
2026-04-15 17:52 32.17463 34.84740 613 ft 77 kts 287°
2026-04-15 17:52 32.17776 34.84142 313 ft 87 kts 304°
2026-04-15 17:52 32.17999 34.83554 106 ft 64 kts 297°
2026-04-15 17:53 32.18160 34.83004 182 ft 72 kts 301°
2026-04-15 17:53 32.18520 34.82807 322 ft 66 kts 26°
2026-04-15 17:53 32.18933 34.82939 494 ft 62 kts 17°
2026-04-15 17:53 32.19272 34.83285 528 ft 83 kts 88°
2026-04-15 17:54 32.19030 34.84005 507 ft 104 kts 108°
2026-04-15 17:54 32.18771 34.84760 642 ft 97 kts 108°
2026-04-15 17:54 32.18375 34.85360 679 ft 100 kts 156°
2026-04-15 17:54 32.17663 34.85162 623 ft 111 kts 210°
2026-04-15 17:55 32.17670 34.84419 462 ft 94 kts 305°
2026-04-15 17:55 32.17931 34.83763 138 ft 81 kts 295°
2026-04-15 17:55 32.18070 34.83320 98 ft 25 kts 264°
2026-04-15 17:55 32.18039 34.83258 99 ft 0 kts 205°